sensor_id;sensor_type;location;lat;lon;timestamp;P1;durP1;ratioP1;P2;durP2;ratioP2
25946;SDS011;13745;51.470;9.894;2023-03-04T01:38:44;31.73;;;9.57;;
25946;SDS011;13745;51.470;9.894;2023-03-04T01:41:30;36.40;;;15.80;;
25946;SDS011;13745;51.470;9.894;2023-03-04T01:44:16;30.13;;;13.77;;
25946;SDS011;13745;51.470;9.894;2023-03-04T01:47:01;30.07;;;13.23;;
25946;SDS011;13745;51.470;9.894;2023-03-04T01:49:47;32.33;;;13.13;;
25946;SDS011;13745;51.470;9.894;2023-03-04T01:52:38;27.05;;;11.82;;
25946;SDS011;13745;51.470;9.894;2023-03-04T01:55:25;28.90;;;12.20;;
25946;SDS011;13745;51.470;9.894;2023-03-04T01:58:12;28.83;;;12.38;;
25946;SDS011;13745;51.470;9.894;2023-03-04T02:00:59;31.85;;;12.40;;
25946;SDS011;13745;51.470;9.894;2023-03-04T02:03:44;23.60;;;11.45;;
25946;SDS011;13745;51.470;9.894;2023-03-04T02:06:29;26.02;;;11.48;;
25946;SDS011;13745;51.470;9.894;2023-03-04T02:09:15;27.65;;;9.32;;
25946;SDS011;13745;51.470;9.894;2023-03-04T02:12:02;20.98;;;7.82;;
25946;SDS011;13745;51.470;9.894;2023-03-04T02:14:47;29.20;;;8.43;;
25946;SDS011;13745;51.470;9.894;2023-03-04T02:17:34;21.90;;;7.25;;
25946;SDS011;13745;51.470;9.894;2023-03-04T02:20:24;23.77;;;8.30;;
25946;SDS011;13745;51.470;9.894;2023-03-04T02:23:19;25.95;;;7.85;;
25946;SDS011;13745;51.470;9.894;2023-03-04T02:26:12;24.55;;;7.88;;
25946;SDS011;13745;51.470;9.894;2023-03-04T02:28:59;21.88;;;8.10;;
25946;SDS011;13745;51.470;9.894;2023-03-04T02:31:46;22.05;;;7.25;;
25946;SDS011;13745;51.470;9.894;2023-03-04T02:34:34;23.83;;;6.50;;
25946;SDS011;13745;51.470;9.894;2023-03-04T02:37:20;22.58;;;7.55;;
25946;SDS011;13745;51.470;9.894;2023-03-04T02:40:09;23.30;;;8.02;;
25946;SDS011;13745;51.470;9.894;2023-03-04T02:43:01;23.33;;;6.45;;
25946;SDS011;13745;51.470;9.894;2023-03-04T02:45:46;21.08;;;8.07;;
25946;SDS011;13745;51.470;9.894;2023-03-04T02:48:33;15.52;;;7.18;;
25946;SDS011;13745;51.470;9.894;2023-03-04T02:51:18;24.15;;;6.90;;
25946;SDS011;13745;51.470;9.894;2023-03-04T02:54:03;23.13;;;7.07;;
25946;SDS011;13745;51.470;9.894;2023-03-04T02:56:49;18.47;;;6.43;;
25946;SDS011;13745;51.470;9.894;2023-03-04T02:59:40;21.60;;;6.22;;
25946;SDS011;13745;51.470;9.894;2023-03-04T03:02:29;22.73;;;6.55;;
25946;SDS011;13745;51.470;9.894;2023-03-04T03:05:15;24.38;;;6.28;;
25946;SDS011;13745;51.470;9.894;2023-03-04T03:08:00;20.08;;;6.70;;
25946;SDS011;13745;51.470;9.894;2023-03-04T03:10:45;17.50;;;5.47;;
25946;SDS011;13745;51.470;9.894;2023-03-04T03:13:30;22.70;;;6.63;;
25946;SDS011;13745;51.470;9.894;2023-03-04T03:16:17;23.33;;;6.60;;
25946;SDS011;13745;51.470;9.894;2023-03-04T03:19:02;22.73;;;6.22;;
25946;SDS011;13745;51.470;9.894;2023-03-04T03:21:48;17.35;;;5.63;;
25946;SDS011;13745;51.470;9.894;2023-03-04T03:24:33;26.10;;;6.10;;
25946;SDS011;13745;51.470;9.894;2023-03-04T03:27:18;25.50;;;6.80;;
25946;SDS011;13745;51.470;9.894;2023-03-04T03:30:04;20.15;;;5.68;;
25946;SDS011;13745;51.470;9.894;2023-03-04T03:32:55;13.65;;;5.05;;
25946;SDS011;13745;51.470;9.894;2023-03-04T03:35:40;21.58;;;5.28;;
25946;SDS011;13745;51.470;9.894;2023-03-04T03:38:25;20.60;;;5.32;;
25946;SDS011;13745;51.470;9.894;2023-03-04T03:41:11;24.13;;;6.00;;
25946;SDS011;13745;51.470;9.894;2023-03-04T03:43:56;11.85;;;5.05;;
25946;SDS011;13745;51.470;9.894;2023-03-04T03:46:41;29.90;;;5.97;;
25946;SDS011;13745;51.470;9.894;2023-03-04T03:49:28;19.15;;;5.22;;
25946;SDS011;13745;51.470;9.894;2023-03-04T03:52:13;20.02;;;5.75;;
25946;SDS011;13745;51.470;9.894;2023-03-04T03:54:57;18.88;;;5.15;;
25946;SDS011;13745;51.470;9.894;2023-03-04T03:57:44;19.70;;;5.13;;
25946;SDS011;13745;51.470;9.894;2023-03-04T04:00:29;24.40;;;5.18;;
25946;SDS011;13745;51.470;9.894;2023-03-04T04:03:14;26.05;;;5.15;;
25946;SDS011;13745;51.470;9.894;2023-03-04T04:06:02;23.55;;;4.43;;
25946;SDS011;13745;51.470;9.894;2023-03-04T04:08:47;22.45;;;4.93;;
25946;SDS011;13745;51.470;9.894;2023-03-04T04:11:32;19.38;;;4.97;;
25946;SDS011;13745;51.470;9.894;2023-03-04T04:14:17;24.30;;;4.70;;
25946;SDS011;13745;51.470;9.894;2023-03-04T04:17:02;18.38;;;4.55;;
25946;SDS011;13745;51.470;9.894;2023-03-04T04:19:47;20.40;;;5.13;;
25946;SDS011;13745;51.470;9.894;2023-03-04T04:22:33;15.75;;;4.40;;
25946;SDS011;13745;51.470;9.894;2023-03-04T04:25:19;16.92;;;4.85;;
25946;SDS011;13745;51.470;9.894;2023-03-04T04:28:04;16.85;;;4.20;;
25946;SDS011;13745;51.470;9.894;2023-03-04T04:30:49;22.38;;;4.43;;
25946;SDS011;13745;51.470;9.894;2023-03-04T04:33:35;18.77;;;4.35;;
25946;SDS011;13745;51.470;9.894;2023-03-04T04:36:19;18.85;;;4.00;;
25946;SDS011;13745;51.470;9.894;2023-03-04T04:39:06;19.17;;;4.47;;
25946;SDS011;13745;51.470;9.894;2023-03-04T04:41:51;19.48;;;3.80;;
25946;SDS011;13745;51.470;9.894;2023-03-04T04:44:36;18.75;;;3.78;;
25946;SDS011;13745;51.470;9.894;2023-03-04T11:09:20;8.07;;;1.50;;
25946;SDS011;13745;51.470;9.894;2023-03-04T11:12:09;2.22;;;1.20;;
25946;SDS011;13745;51.470;9.894;2023-03-04T11:14:56;5.10;;;1.60;;
25946;SDS011;13745;51.470;9.894;2023-03-04T11:17:44;3.35;;;1.38;;
25946;SDS011;13745;51.470;9.894;2023-03-04T11:20:33;3.55;;;1.48;;
25946;SDS011;13745;51.470;9.894;2023-03-04T11:23:21;3.13;;;1.50;;
25946;SDS011;13745;51.470;9.894;2023-03-04T11:29:01;3.58;;;0.90;;
25946;SDS011;13745;51.470;9.894;2023-03-04T11:31:52;4.20;;;1.40;;
25946;SDS011;13745;51.470;9.894;2023-03-04T11:34:44;4.53;;;1.30;;
25946;SDS011;13745;51.470;9.894;2023-03-04T11:37:35;2.63;;;1.30;;
25946;SDS011;13745;51.470;9.894;2023-03-04T11:40:27;1.88;;;1.17;;
25946;SDS011;13745;51.470;9.894;2023-03-04T12:03:29;2.53;;;1.00;;
25946;SDS011;13745;51.470;9.894;2023-03-04T12:06:28;2.58;;;0.95;;
25946;SDS011;13745;51.470;9.894;2023-03-04T12:09:32;3.42;;;1.60;;
25946;SDS011;13745;51.470;9.894;2023-03-04T13:30:40;1.45;;;1.10;;
25946;SDS011;13745;51.470;9.894;2023-03-04T13:33:48;14.57;;;6.78;;
25946;SDS011;13745;51.470;9.894;2023-03-04T13:39:48;6.07;;;3.93;;
25946;SDS011;13745;51.470;9.894;2023-03-04T13:43:35;5.00;;;3.07;;
25946;SDS011;13745;51.470;9.894;2023-03-04T19:01:21;8.27;;;2.30;;
25946;SDS011;13745;51.470;9.894;2023-03-04T19:04:08;9.05;;;2.15;;
25946;SDS011;13745;51.470;9.894;2023-03-04T19:06:55;8.70;;;1.85;;
25946;SDS011;13745;51.470;9.894;2023-03-04T19:09:41;8.13;;;2.72;;
25946;SDS011;13745;51.470;9.894;2023-03-04T19:12:26;10.98;;;2.67;;
25946;SDS011;13745;51.470;9.894;2023-03-04T19:15:11;11.27;;;3.17;;
25946;SDS011;13745;51.470;9.894;2023-03-04T19:17:57;9.18;;;2.38;;
25946;SDS011;13745;51.470;9.894;2023-03-04T19:20:43;6.30;;;2.17;;
25946;SDS011;13745;51.470;9.894;2023-03-04T19:23:29;10.77;;;3.53;;
25946;SDS011;13745;51.470;9.894;2023-03-04T19:26:14;17.95;;;3.85;;
25946;SDS011;13745;51.470;9.894;2023-03-04T19:28:59;13.77;;;2.42;;
25946;SDS011;13745;51.470;9.894;2023-03-04T19:31:44;13.80;;;2.90;;
25946;SDS011;13745;51.470;9.894;2023-03-04T19:34:29;14.90;;;3.83;;
25946;SDS011;13745;51.470;9.894;2023-03-04T19:37:14;13.48;;;3.13;;
25946;SDS011;13745;51.470;9.894;2023-03-04T19:40:01;10.10;;;3.40;;
25946;SDS011;13745;51.470;9.894;2023-03-04T19:42:46;12.82;;;3.53;;
25946;SDS011;13745;51.470;9.894;2023-03-04T19:45:31;16.60;;;3.95;;
25946;SDS011;13745;51.470;9.894;2023-03-04T19:48:16;8.18;;;4.20;;
25946;SDS011;13745;51.470;9.894;2023-03-04T19:51:01;16.88;;;7.07;;
25946;SDS011;13745;51.470;9.894;2023-03-04T19:53:47;14.90;;;4.75;;
25946;SDS011;13745;51.470;9.894;2023-03-04T19:56:35;11.38;;;4.38;;
25946;SDS011;13745;51.470;9.894;2023-03-04T19:59:20;15.55;;;4.20;;
25946;SDS011;13745;51.470;9.894;2023-03-04T20:02:05;13.32;;;2.53;;
25946;SDS011;13745;51.470;9.894;2023-03-04T20:04:50;10.65;;;3.33;;
25946;SDS011;13745;51.470;9.894;2023-03-04T20:07:35;10.77;;;3.25;;
25946;SDS011;13745;51.470;9.894;2023-03-04T20:10:20;15.23;;;5.70;;
25946;SDS011;13745;51.470;9.894;2023-03-04T20:13:07;17.52;;;6.47;;
25946;SDS011;13745;51.470;9.894;2023-03-04T20:15:53;15.65;;;3.17;;
25946;SDS011;13745;51.470;9.894;2023-03-04T20:18:38;17.77;;;3.63;;
25946;SDS011;13745;51.470;9.894;2023-03-04T20:21:23;16.42;;;4.10;;
25946;SDS011;13745;51.470;9.894;2023-03-04T20:24:08;9.77;;;3.47;;
25946;SDS011;13745;51.470;9.894;2023-03-04T20:26:53;12.20;;;2.50;;
25946;SDS011;13745;51.470;9.894;2023-03-04T20:29:40;14.27;;;2.75;;
25946;SDS011;13745;51.470;9.894;2023-03-04T20:32:27;13.63;;;2.72;;
25946;SDS011;13745;51.470;9.894;2023-03-04T20:35:12;16.00;;;2.97;;
25946;SDS011;13745;51.470;9.894;2023-03-04T20:37:58;17.05;;;3.42;;
25946;SDS011;13745;51.470;9.894;2023-03-04T20:40:43;14.20;;;3.30;;
25946;SDS011;13745;51.470;9.894;2023-03-04T20:43:28;11.43;;;2.65;;
25946;SDS011;13745;51.470;9.894;2023-03-04T20:46:25;14.93;;;2.03;;
25946;SDS011;13745;51.470;9.894;2023-03-04T20:49:16;10.30;;;1.60;;
25946;SDS011;13745;51.470;9.894;2023-03-04T20:52:04;14.43;;;1.80;;
25946;SDS011;13745;51.470;9.894;2023-03-04T20:54:50;10.00;;;1.88;;
25946;SDS011;13745;51.470;9.894;2023-03-04T20:57:35;9.98;;;2.20;;
25946;SDS011;13745;51.470;9.894;2023-03-04T21:00:20;10.43;;;2.33;;
25946;SDS011;13745;51.470;9.894;2023-03-04T21:03:07;9.30;;;2.55;;
25946;SDS011;13745;51.470;9.894;2023-03-04T21:05:53;10.73;;;2.45;;
25946;SDS011;13745;51.470;9.894;2023-03-04T21:08:39;14.45;;;2.97;;
25946;SDS011;13745;51.470;9.894;2023-03-04T21:11:25;9.77;;;2.03;;
25946;SDS011;13745;51.470;9.894;2023-03-04T21:14:11;4.78;;;1.70;;
25946;SDS011;13745;51.470;9.894;2023-03-04T21:16:58;9.25;;;2.72;;
25946;SDS011;13745;51.470;9.894;2023-03-04T21:19:46;8.82;;;1.92;;
25946;SDS011;13745;51.470;9.894;2023-03-04T21:22:31;5.05;;;1.70;;
25946;SDS011;13745;51.470;9.894;2023-03-04T21:25:16;8.30;;;1.73;;
25946;SDS011;13745;51.470;9.894;2023-03-04T21:28:02;15.75;;;1.73;;
25946;SDS011;13745;51.470;9.894;2023-03-04T21:30:47;7.00;;;1.80;;
25946;SDS011;13745;51.470;9.894;2023-03-04T21:33:32;8.20;;;1.63;;
25946;SDS011;13745;51.470;9.894;2023-03-04T21:36:21;9.15;;;1.38;;
25946;SDS011;13745;51.470;9.894;2023-03-04T21:39:06;7.03;;;1.20;;
25946;SDS011;13745;51.470;9.894;2023-03-04T21:41:51;9.05;;;1.60;;
25946;SDS011;13745;51.470;9.894;2023-03-04T21:44:37;10.18;;;1.75;;
25946;SDS011;13745;51.470;9.894;2023-03-04T21:47:22;10.10;;;2.08;;
25946;SDS011;13745;51.470;9.894;2023-03-04T21:50:07;5.43;;;1.40;;
25946;SDS011;13745;51.470;9.894;2023-03-04T21:52:54;8.82;;;1.48;;
25946;SDS011;13745;51.470;9.894;2023-03-04T21:55:40;7.10;;;1.50;;
25946;SDS011;13745;51.470;9.894;2023-03-04T21:58:25;7.45;;;1.35;;
25946;SDS011;13745;51.470;9.894;2023-03-04T22:01:11;12.27;;;1.40;;
25946;SDS011;13745;51.470;9.894;2023-03-04T22:03:57;5.55;;;1.63;;
25946;SDS011;13745;51.470;9.894;2023-03-04T22:06:43;10.98;;;1.42;;
25946;SDS011;13745;51.470;9.894;2023-03-04T22:09:29;8.80;;;1.83;;
25946;SDS011;13745;51.470;9.894;2023-03-04T22:12:14;11.43;;;1.35;;
25946;SDS011;13745;51.470;9.894;2023-03-04T22:14:59;5.75;;;1.80;;
25946;SDS011;13745;51.470;9.894;2023-03-04T22:17:44;7.85;;;2.10;;
25946;SDS011;13745;51.470;9.894;2023-03-04T22:20:29;5.15;;;1.30;;
25946;SDS011;13745;51.470;9.894;2023-03-04T22:23:15;3.78;;;0.95;;
25946;SDS011;13745;51.470;9.894;2023-03-04T22:26:04;6.55;;;1.00;;
25946;SDS011;13745;51.470;9.894;2023-03-04T22:28:51;7.55;;;1.73;;
25946;SDS011;13745;51.470;9.894;2023-03-04T22:31:37;8.95;;;1.42;;
25946;SDS011;13745;51.470;9.894;2023-03-04T22:34:22;6.85;;;1.35;;
25946;SDS011;13745;51.470;9.894;2023-03-04T22:37:07;9.35;;;1.13;;
25946;SDS011;13745;51.470;9.894;2023-03-04T22:39:52;5.43;;;1.05;;
25946;SDS011;13745;51.470;9.894;2023-03-04T22:42:39;8.32;;;1.40;;
25946;SDS011;13745;51.470;9.894;2023-03-04T22:45:28;6.43;;;1.10;;
25946;SDS011;13745;51.470;9.894;2023-03-04T22:48:15;9.15;;;1.63;;
25946;SDS011;13745;51.470;9.894;2023-03-04T22:51:03;4.38;;;1.13;;
25946;SDS011;13745;51.470;9.894;2023-03-04T22:53:49;4.25;;;1.00;;
25946;SDS011;13745;51.470;9.894;2023-03-04T22:56:34;7.60;;;1.30;;
25946;SDS011;13745;51.470;9.894;2023-03-04T22:59:23;3.80;;;1.00;;
25946;SDS011;13745;51.470;9.894;2023-03-04T23:02:08;9.10;;;1.30;;
25946;SDS011;13745;51.470;9.894;2023-03-04T23:04:53;6.07;;;0.95;;
25946;SDS011;13745;51.470;9.894;2023-03-04T23:07:38;6.65;;;1.48;;
25946;SDS011;13745;51.470;9.894;2023-03-04T23:10:24;6.50;;;1.25;;
25946;SDS011;13745;51.470;9.894;2023-03-04T23:13:09;6.10;;;1.20;;
25946;SDS011;13745;51.470;9.894;2023-03-04T23:15:55;6.40;;;1.02;;
25946;SDS011;13745;51.470;9.894;2023-03-04T23:18:41;10.30;;;1.73;;
25946;SDS011;13745;51.470;9.894;2023-03-04T23:21:28;10.80;;;1.75;;
25946;SDS011;13745;51.470;9.894;2023-03-04T23:24:16;4.32;;;0.95;;
25946;SDS011;13745;51.470;9.894;2023-03-04T23:27:02;4.47;;;1.60;;
25946;SDS011;13745;51.470;9.894;2023-03-04T23:29:47;6.40;;;1.20;;
25946;SDS011;13745;51.470;9.894;2023-03-04T23:32:33;3.15;;;0.80;;
25946;SDS011;13745;51.470;9.894;2023-03-04T23:38:22;7.18;;;1.50;;
25946;SDS011;13745;51.470;9.894;2023-03-04T23:41:08;8.25;;;1.13;;
25946;SDS011;13745;51.470;9.894;2023-03-04T23:43:55;8.13;;;1.17;;
25946;SDS011;13745;51.470;9.894;2023-03-04T23:46:42;8.77;;;0.82;;
25946;SDS011;13745;51.470;9.894;2023-03-04T23:49:28;4.05;;;1.17;;
25946;SDS011;13745;51.470;9.894;2023-03-04T23:52:13;5.07;;;0.73;;
25946;SDS011;13745;51.470;9.894;2023-03-04T23:54:58;3.55;;;0.80;;
25946;SDS011;13745;51.470;9.894;2023-03-04T23:57:43;5.05;;;0.82;;
